sensor_id;sensor_type;location;lat;lon;timestamp;P1;durP1;ratioP1;P2;durP2;ratioP2
51995;SDS011;38010;53.264;6.592;2023-04-03T00:02:07;0.30;;;0.30;;
51995;SDS011;38010;53.264;6.592;2023-04-03T00:04:33;0.38;;;0.38;;
51995;SDS011;38010;53.264;6.592;2023-04-03T00:06:58;0.30;;;0.30;;
51995;SDS011;38010;53.264;6.592;2023-04-03T00:09:24;0.30;;;0.30;;
51995;SDS011;38010;53.264;6.592;2023-04-03T00:11:50;0.30;;;0.30;;
51995;SDS011;38010;53.264;6.592;2023-04-03T00:14:15;0.40;;;0.30;;
51995;SDS011;38010;53.264;6.592;2023-04-03T00:16:41;0.30;;;0.30;;
51995;SDS011;38010;53.264;6.592;2023-04-03T00:19:07;0.30;;;0.30;;
51995;SDS011;38010;53.264;6.592;2023-04-03T00:21:33;0.30;;;0.30;;
51995;SDS011;38010;53.264;6.592;2023-04-03T00:23:59;0.50;;;0.30;;
51995;SDS011;38010;53.264;6.592;2023-04-03T00:26:25;0.50;;;0.30;;
51995;SDS011;38010;53.264;6.592;2023-04-03T00:28:50;0.32;;;0.32;;
51995;SDS011;38010;53.264;6.592;2023-04-03T00:31:16;0.35;;;0.35;;
51995;SDS011;38010;53.264;6.592;2023-04-03T00:33:42;0.32;;;0.32;;
51995;SDS011;38010;53.264;6.592;2023-04-03T00:36:09;0.77;;;0.30;;
51995;SDS011;38010;53.264;6.592;2023-04-03T00:38:35;0.30;;;0.30;;
51995;SDS011;38010;53.264;6.592;2023-04-03T00:41:01;0.30;;;0.30;;
51995;SDS011;38010;53.264;6.592;2023-04-03T00:43:27;0.40;;;0.30;;
51995;SDS011;38010;53.264;6.592;2023-04-03T00:45:54;0.38;;;0.38;;
51995;SDS011;38010;53.264;6.592;2023-04-03T00:48:24;0.30;;;0.30;;
51995;SDS011;38010;53.264;6.592;2023-04-03T00:50:54;0.30;;;0.30;;
51995;SDS011;38010;53.264;6.592;2023-04-03T00:53:29;0.45;;;0.35;;
51995;SDS011;38010;53.264;6.592;2023-04-03T00:56:08;0.35;;;0.35;;
51995;SDS011;38010;53.264;6.592;2023-04-03T00:58:37;0.20;;;0.20;;
51995;SDS011;38010;53.264;6.592;2023-04-03T01:01:08;0.50;;;0.50;;
51995;SDS011;38010;53.264;6.592;2023-04-03T01:03:39;0.30;;;0.30;;
51995;SDS011;38010;53.264;6.592;2023-04-03T01:06:05;0.73;;;0.40;;
51995;SDS011;38010;53.264;6.592;2023-04-03T01:08:31;0.93;;;0.40;;
51995;SDS011;38010;53.264;6.592;2023-04-03T01:10:57;0.55;;;0.30;;
51995;SDS011;38010;53.264;6.592;2023-04-03T01:13:24;0.68;;;0.30;;
51995;SDS011;38010;53.264;6.592;2023-04-03T01:15:51;1.00;;;0.30;;
51995;SDS011;38010;53.264;6.592;2023-04-03T01:18:18;0.38;;;0.30;;
51995;SDS011;38010;53.264;6.592;2023-04-03T01:26:07;0.65;;;0.40;;
51995;SDS011;38010;53.264;6.592;2023-04-03T01:28:35;0.40;;;0.30;;
51995;SDS011;38010;53.264;6.592;2023-04-03T01:33:40;0.68;;;0.30;;
51995;SDS011;38010;53.264;6.592;2023-04-03T01:36:07;0.30;;;0.30;;
51995;SDS011;38010;53.264;6.592;2023-04-03T01:38:33;0.32;;;0.32;;
51995;SDS011;38010;53.264;6.592;2023-04-03T01:40:58;0.30;;;0.30;;
51995;SDS011;38010;53.264;6.592;2023-04-03T01:43:24;0.30;;;0.30;;
51995;SDS011;38010;53.264;6.592;2023-04-03T01:45:50;0.22;;;0.22;;
51995;SDS011;38010;53.264;6.592;2023-04-03T01:48:17;0.38;;;0.30;;
51995;SDS011;38010;53.264;6.592;2023-04-03T01:50:43;0.35;;;0.30;;
51995;SDS011;38010;53.264;6.592;2023-04-03T01:53:09;0.30;;;0.30;;
51995;SDS011;38010;53.264;6.592;2023-04-03T01:55:35;0.50;;;0.40;;
51995;SDS011;38010;53.264;6.592;2023-04-03T01:58:01;0.75;;;0.40;;
51995;SDS011;38010;53.264;6.592;2023-04-03T02:00:27;0.40;;;0.38;;
51995;SDS011;38010;53.264;6.592;2023-04-03T02:02:52;0.30;;;0.30;;
51995;SDS011;38010;53.264;6.592;2023-04-03T02:05:18;0.40;;;0.40;;
51995;SDS011;38010;53.264;6.592;2023-04-03T02:07:44;0.57;;;0.35;;
51995;SDS011;38010;53.264;6.592;2023-04-03T02:10:10;0.30;;;0.30;;
51995;SDS011;38010;53.264;6.592;2023-04-03T02:12:37;0.32;;;0.30;;
51995;SDS011;38010;53.264;6.592;2023-04-03T02:15:03;0.30;;;0.30;;
51995;SDS011;38010;53.264;6.592;2023-04-03T02:17:29;0.43;;;0.30;;
51995;SDS011;38010;53.264;6.592;2023-04-03T02:19:54;1.05;;;0.43;;
51995;SDS011;38010;53.264;6.592;2023-04-03T02:22:20;0.40;;;0.30;;
51995;SDS011;38010;53.264;6.592;2023-04-03T02:24:46;0.70;;;0.40;;
51995;SDS011;38010;53.264;6.592;2023-04-03T02:27:11;0.40;;;0.30;;
51995;SDS011;38010;53.264;6.592;2023-04-03T02:29:38;0.28;;;0.28;;
51995;SDS011;38010;53.264;6.592;2023-04-03T02:32:03;0.30;;;0.30;;
51995;SDS011;38010;53.264;6.592;2023-04-03T02:34:29;0.80;;;0.30;;
51995;SDS011;38010;53.264;6.592;2023-04-03T02:36:55;0.30;;;0.30;;
51995;SDS011;38010;53.264;6.592;2023-04-03T02:39:21;0.40;;;0.38;;
51995;SDS011;38010;53.264;6.592;2023-04-03T02:41:47;0.43;;;0.40;;
51995;SDS011;38010;53.264;6.592;2023-04-03T02:44:12;0.30;;;0.30;;
51995;SDS011;38010;53.264;6.592;2023-04-03T02:46:38;0.35;;;0.30;;
51995;SDS011;38010;53.264;6.592;2023-04-03T02:49:04;0.70;;;0.40;;
51995;SDS011;38010;53.264;6.592;2023-04-03T02:51:30;0.32;;;0.32;;
51995;SDS011;38010;53.264;6.592;2023-04-03T02:53:56;0.35;;;0.32;;
51995;SDS011;38010;53.264;6.592;2023-04-03T02:56:22;0.60;;;0.30;;
51995;SDS011;38010;53.264;6.592;2023-04-03T02:58:47;0.40;;;0.30;;
51995;SDS011;38010;53.264;6.592;2023-04-03T03:01:13;0.90;;;0.30;;
51995;SDS011;38010;53.264;6.592;2023-04-03T03:03:39;0.35;;;0.35;;
51995;SDS011;38010;53.264;6.592;2023-04-03T03:06:06;0.60;;;0.30;;
51995;SDS011;38010;53.264;6.592;2023-04-03T03:08:33;0.50;;;0.40;;
51995;SDS011;38010;53.264;6.592;2023-04-03T03:11:00;0.30;;;0.30;;
51995;SDS011;38010;53.264;6.592;2023-04-03T03:13:26;0.30;;;0.30;;
51995;SDS011;38010;53.264;6.592;2023-04-03T03:15:51;0.30;;;0.30;;
51995;SDS011;38010;53.264;6.592;2023-04-03T03:18:17;0.40;;;0.30;;
51995;SDS011;38010;53.264;6.592;2023-04-03T03:20:43;0.60;;;0.40;;
51995;SDS011;38010;53.264;6.592;2023-04-03T03:23:10;0.45;;;0.35;;
51995;SDS011;38010;53.264;6.592;2023-04-03T03:25:39;0.55;;;0.30;;
51995;SDS011;38010;53.264;6.592;2023-04-03T03:28:05;0.85;;;0.70;;
51995;SDS011;38010;53.264;6.592;2023-04-03T03:30:32;0.20;;;0.20;;
51995;SDS011;38010;53.264;6.592;2023-04-03T03:32:58;0.38;;;0.30;;
51995;SDS011;38010;53.264;6.592;2023-04-03T03:35:24;0.25;;;0.25;;
51995;SDS011;38010;53.264;6.592;2023-04-03T03:37:50;0.45;;;0.32;;
51995;SDS011;38010;53.264;6.592;2023-04-03T03:40:16;0.50;;;0.30;;
51995;SDS011;38010;53.264;6.592;2023-04-03T03:42:42;0.47;;;0.47;;
51995;SDS011;38010;53.264;6.592;2023-04-03T03:45:08;0.57;;;0.40;;
51995;SDS011;38010;53.264;6.592;2023-04-03T03:47:34;0.55;;;0.30;;
51995;SDS011;38010;53.264;6.592;2023-04-03T03:50:00;0.60;;;0.40;;
51995;SDS011;38010;53.264;6.592;2023-04-03T03:52:26;0.70;;;0.50;;
51995;SDS011;38010;53.264;6.592;2023-04-03T03:54:52;1.10;;;0.40;;
51995;SDS011;38010;53.264;6.592;2023-04-03T03:57:18;1.35;;;0.40;;
51995;SDS011;38010;53.264;6.592;2023-04-03T03:59:43;0.40;;;0.40;;
51995;SDS011;38010;53.264;6.592;2023-04-03T04:02:09;0.50;;;0.40;;
51995;SDS011;38010;53.264;6.592;2023-04-03T04:04:36;0.30;;;0.30;;
51995;SDS011;38010;53.264;6.592;2023-04-03T04:07:02;0.50;;;0.35;;
51995;SDS011;38010;53.264;6.592;2023-04-03T04:09:28;0.50;;;0.40;;
51995;SDS011;38010;53.264;6.592;2023-04-03T04:11:54;0.40;;;0.32;;
51995;SDS011;38010;53.264;6.592;2023-04-03T04:14:20;0.30;;;0.30;;
51995;SDS011;38010;53.264;6.592;2023-04-03T04:16:46;0.50;;;0.40;;
51995;SDS011;38010;53.264;6.592;2023-04-03T04:19:12;0.70;;;0.30;;
51995;SDS011;38010;53.264;6.592;2023-04-03T04:21:38;0.57;;;0.40;;
51995;SDS011;38010;53.264;6.592;2023-04-03T04:24:04;0.75;;;0.30;;
51995;SDS011;38010;53.264;6.592;2023-04-03T04:26:31;0.30;;;0.30;;
51995;SDS011;38010;53.264;6.592;2023-04-03T04:28:56;0.57;;;0.40;;
51995;SDS011;38010;53.264;6.592;2023-04-03T04:31:22;0.50;;;0.30;;
51995;SDS011;38010;53.264;6.592;2023-04-03T04:33:48;0.93;;;0.50;;
51995;SDS011;38010;53.264;6.592;2023-04-03T04:36:14;0.38;;;0.30;;
51995;SDS011;38010;53.264;6.592;2023-04-03T04:38:40;0.70;;;0.40;;
51995;SDS011;38010;53.264;6.592;2023-04-03T04:41:06;0.63;;;0.30;;
51995;SDS011;38010;53.264;6.592;2023-04-03T04:43:32;0.38;;;0.30;;
51995;SDS011;38010;53.264;6.592;2023-04-03T04:48:27;0.73;;;0.30;;
51995;SDS011;38010;53.264;6.592;2023-04-03T04:50:53;1.05;;;0.50;;
51995;SDS011;38010;53.264;6.592;2023-04-03T04:53:18;2.38;;;1.15;;
51995;SDS011;38010;53.264;6.592;2023-04-03T04:55:44;0.68;;;0.40;;
51995;SDS011;38010;53.264;6.592;2023-04-03T04:58:10;0.63;;;0.30;;
51995;SDS011;38010;53.264;6.592;2023-04-03T05:00:36;1.17;;;0.50;;
51995;SDS011;38010;53.264;6.592;2023-04-03T05:03:01;2.28;;;0.40;;
51995;SDS011;38010;53.264;6.592;2023-04-03T05:05:27;1.33;;;0.47;;
51995;SDS011;38010;53.264;6.592;2023-04-03T05:07:53;1.40;;;0.45;;
51995;SDS011;38010;53.264;6.592;2023-04-03T05:10:19;0.50;;;0.30;;
51995;SDS011;38010;53.264;6.592;2023-04-03T05:12:45;0.30;;;0.30;;
51995;SDS011;38010;53.264;6.592;2023-04-03T05:15:11;1.13;;;0.47;;
51995;SDS011;38010;53.264;6.592;2023-04-03T05:17:37;0.93;;;0.45;;
51995;SDS011;38010;53.264;6.592;2023-04-03T05:20:03;0.70;;;0.40;;
51995;SDS011;38010;53.264;6.592;2023-04-03T05:22:30;0.73;;;0.40;;
51995;SDS011;38010;53.264;6.592;2023-04-03T05:24:56;0.32;;;0.32;;
51995;SDS011;38010;53.264;6.592;2023-04-03T05:27:22;1.10;;;0.43;;
51995;SDS011;38010;53.264;6.592;2023-04-03T05:29:49;3.58;;;0.60;;
51995;SDS011;38010;53.264;6.592;2023-04-03T05:32:15;0.60;;;0.40;;
51995;SDS011;38010;53.264;6.592;2023-04-03T05:34:41;1.02;;;0.50;;
51995;SDS011;38010;53.264;6.592;2023-04-03T05:37:07;0.90;;;0.47;;
51995;SDS011;38010;53.264;6.592;2023-04-03T05:39:33;0.43;;;0.40;;
51995;SDS011;38010;53.264;6.592;2023-04-03T05:41:59;1.20;;;0.57;;
51995;SDS011;38010;53.264;6.592;2023-04-03T05:44:25;1.67;;;0.40;;
51995;SDS011;38010;53.264;6.592;2023-04-03T05:46:51;1.45;;;0.43;;
51995;SDS011;38010;53.264;6.592;2023-04-03T05:49:16;1.98;;;0.60;;
51995;SDS011;38010;53.264;6.592;2023-04-03T05:51:43;4.22;;;0.60;;
51995;SDS011;38010;53.264;6.592;2023-04-03T05:54:28;1.83;;;0.52;;
51995;SDS011;38010;53.264;6.592;2023-04-03T05:56:55;1.10;;;0.50;;
51995;SDS011;38010;53.264;6.592;2023-04-03T05:59:21;1.77;;;0.50;;
51995;SDS011;38010;53.264;6.592;2023-04-03T06:01:47;0.40;;;0.40;;
51995;SDS011;38010;53.264;6.592;2023-04-03T06:04:13;1.15;;;0.50;;
51995;SDS011;38010;53.264;6.592;2023-04-03T06:06:46;1.25;;;0.40;;
51995;SDS011;38010;53.264;6.592;2023-04-03T06:09:20;1.35;;;0.50;;
51995;SDS011;38010;53.264;6.592;2023-04-03T06:11:48;1.77;;;0.50;;
51995;SDS011;38010;53.264;6.592;2023-04-03T06:14:13;0.90;;;0.55;;
51995;SDS011;38010;53.264;6.592;2023-04-03T06:16:39;1.00;;;0.40;;
51995;SDS011;38010;53.264;6.592;2023-04-03T06:19:05;0.63;;;0.50;;
51995;SDS011;38010;53.264;6.592;2023-04-03T06:21:32;2.38;;;0.68;;
51995;SDS011;38010;53.264;6.592;2023-04-03T06:23:58;2.58;;;0.43;;
51995;SDS011;38010;53.264;6.592;2023-04-03T06:26:24;0.50;;;0.45;;
51995;SDS011;38010;53.264;6.592;2023-04-03T06:28:49;0.47;;;0.30;;
51995;SDS011;38010;53.264;6.592;2023-04-03T06:31:15;2.08;;;0.40;;
51995;SDS011;38010;53.264;6.592;2023-04-03T06:33:42;1.75;;;0.57;;
51995;SDS011;38010;53.264;6.592;2023-04-03T06:36:09;0.98;;;0.50;;
51995;SDS011;38010;53.264;6.592;2023-04-03T06:38:36;0.60;;;0.40;;
51995;SDS011;38010;53.264;6.592;2023-04-03T06:41:02;0.30;;;0.30;;
51995;SDS011;38010;53.264;6.592;2023-04-03T06:43:28;0.60;;;0.40;;
51995;SDS011;38010;53.264;6.592;2023-04-03T06:45:56;0.85;;;0.50;;
51995;SDS011;38010;53.264;6.592;2023-04-03T06:48:22;1.27;;;0.50;;
51995;SDS011;38010;53.264;6.592;2023-04-03T06:50:48;1.23;;;0.50;;
51995;SDS011;38010;53.264;6.592;2023-04-03T06:53:14;0.93;;;0.60;;
51995;SDS011;38010;53.264;6.592;2023-04-03T06:55:40;0.70;;;0.45;;
51995;SDS011;38010;53.264;6.592;2023-04-03T06:58:06;1.45;;;0.40;;
51995;SDS011;38010;53.264;6.592;2023-04-03T07:00:32;0.40;;;0.40;;
51995;SDS011;38010;53.264;6.592;2023-04-03T07:02:59;0.50;;;0.50;;
51995;SDS011;38010;53.264;6.592;2023-04-03T07:05:25;0.63;;;0.50;;
51995;SDS011;38010;53.264;6.592;2023-04-03T07:07:51;1.13;;;0.50;;
51995;SDS011;38010;53.264;6.592;2023-04-03T07:10:17;1.08;;;0.50;;
51995;SDS011;38010;53.264;6.592;2023-04-03T07:12:43;0.60;;;0.45;;
51995;SDS011;38010;53.264;6.592;2023-04-03T07:15:10;0.68;;;0.40;;
51995;SDS011;38010;53.264;6.592;2023-04-03T07:17:38;0.40;;;0.40;;
51995;SDS011;38010;53.264;6.592;2023-04-03T07:20:04;0.47;;;0.45;;
51995;SDS011;38010;53.264;6.592;2023-04-03T07:22:30;1.55;;;0.60;;
51995;SDS011;38010;53.264;6.592;2023-04-03T07:24:55;1.23;;;0.40;;
51995;SDS011;38010;53.264;6.592;2023-04-03T07:27:21;1.25;;;0.40;;
51995;SDS011;38010;53.264;6.592;2023-04-03T07:29:47;1.27;;;0.60;;
51995;SDS011;38010;53.264;6.592;2023-04-03T07:32:15;0.40;;;0.40;;
51995;SDS011;38010;53.264;6.592;2023-04-03T07:34:42;0.75;;;0.60;;
51995;SDS011;38010;53.264;6.592;2023-04-03T07:37:09;1.40;;;0.40;;
51995;SDS011;38010;53.264;6.592;2023-04-03T07:39:35;1.17;;;0.55;;
51995;SDS011;38010;53.264;6.592;2023-04-03T07:42:01;0.82;;;0.50;;
51995;SDS011;38010;53.264;6.592;2023-04-03T07:44:27;0.77;;;0.50;;
51995;SDS011;38010;53.264;6.592;2023-04-03T07:46:53;0.60;;;0.47;;
51995;SDS011;38010;53.264;6.592;2023-04-03T07:49:21;0.52;;;0.35;;
51995;SDS011;38010;53.264;6.592;2023-04-03T07:51:49;1.25;;;0.57;;
51995;SDS011;38010;53.264;6.592;2023-04-03T07:54:15;1.13;;;0.57;;
51995;SDS011;38010;53.264;6.592;2023-04-03T07:56:41;0.68;;;0.50;;
51995;SDS011;38010;53.264;6.592;2023-04-03T07:59:08;0.88;;;0.50;;
51995;SDS011;38010;53.264;6.592;2023-04-03T08:01:35;1.02;;;0.50;;
51995;SDS011;38010;53.264;6.592;2023-04-03T08:04:01;1.13;;;0.52;;
51995;SDS011;38010;53.264;6.592;2023-04-03T08:06:27;0.95;;;0.40;;
51995;SDS011;38010;53.264;6.592;2023-04-03T08:08:54;0.52;;;0.40;;
51995;SDS011;38010;53.264;6.592;2023-04-03T08:11:21;0.52;;;0.30;;
51995;SDS011;38010;53.264;6.592;2023-04-03T08:13:48;0.90;;;0.50;;
51995;SDS011;38010;53.264;6.592;2023-04-03T08:16:18;1.38;;;0.80;;
51995;SDS011;38010;53.264;6.592;2023-04-03T08:18:46;0.95;;;0.45;;
51995;SDS011;38010;53.264;6.592;2023-04-03T08:21:12;1.13;;;0.50;;
51995;SDS011;38010;53.264;6.592;2023-04-03T08:23:39;0.57;;;0.43;;
51995;SDS011;38010;53.264;6.592;2023-04-03T08:26:07;2.10;;;0.70;;
51995;SDS011;38010;53.264;6.592;2023-04-03T08:28:34;0.50;;;0.47;;
51995;SDS011;38010;53.264;6.592;2023-04-03T08:31:04;0.70;;;0.50;;
51995;SDS011;38010;53.264;6.592;2023-04-03T08:33:31;0.63;;;0.50;;
51995;SDS011;38010;53.264;6.592;2023-04-03T08:35:57;1.08;;;0.70;;
51995;SDS011;38010;53.264;6.592;2023-04-03T08:38:23;0.40;;;0.40;;
51995;SDS011;38010;53.264;6.592;2023-04-03T08:40:59;0.47;;;0.40;;
51995;SDS011;38010;53.264;6.592;2023-04-03T08:46:15;0.90;;;0.60;;
51995;SDS011;38010;53.264;6.592;2023-04-03T08:48:45;0.82;;;0.55;;
51995;SDS011;38010;53.264;6.592;2023-04-03T08:51:15;1.38;;;0.60;;
51995;SDS011;38010;53.264;6.592;2023-04-03T08:53:56;0.98;;;0.50;;
51995;SDS011;38010;53.264;6.592;2023-04-03T08:56:33;1.50;;;0.50;;
51995;SDS011;38010;53.264;6.592;2023-04-03T08:59:00;1.05;;;0.50;;
51995;SDS011;38010;53.264;6.592;2023-04-03T09:01:34;0.65;;;0.50;;
51995;SDS011;38010;53.264;6.592;2023-04-03T09:04:03;0.95;;;0.60;;
51995;SDS011;38010;53.264;6.592;2023-04-03T09:06:35;1.00;;;0.50;;
51995;SDS011;38010;53.264;6.592;2023-04-03T09:12:29;0.88;;;0.50;;
51995;SDS011;38010;53.264;6.592;2023-04-03T09:14:44;1.20;;;0.50;;
51995;SDS011;38010;53.264;6.592;2023-04-03T09:17:26;0.40;;;0.40;;
51995;SDS011;38010;53.264;6.592;2023-04-03T09:22:55;0.57;;;0.40;;
51995;SDS011;38010;53.264;6.592;2023-04-03T09:25:23;0.93;;;0.50;;
51995;SDS011;38010;53.264;6.592;2023-04-03T09:27:57;0.30;;;0.30;;
51995;SDS011;38010;53.264;6.592;2023-04-03T09:30:25;0.40;;;0.40;;
51995;SDS011;38010;53.264;6.592;2023-04-03T09:32:53;1.00;;;0.90;;
51995;SDS011;38010;53.264;6.592;2023-04-03T09:35:21;0.95;;;0.50;;
51995;SDS011;38010;53.264;6.592;2023-04-03T09:37:49;0.63;;;0.40;;
51995;SDS011;38010;53.264;6.592;2023-04-03T09:42:52;0.50;;;0.40;;
51995;SDS011;38010;53.264;6.592;2023-04-03T09:45:24;0.50;;;0.47;;
51995;SDS011;38010;53.264;6.592;2023-04-03T09:50:52;0.52;;;0.40;;
51995;SDS011;38010;53.264;6.592;2023-04-03T09:56:18;0.75;;;0.50;;
51995;SDS011;38010;53.264;6.592;2023-04-03T10:01:29;0.45;;;0.40;;
51995;SDS011;38010;53.264;6.592;2023-04-03T10:04:05;0.40;;;0.40;;
51995;SDS011;38010;53.264;6.592;2023-04-03T10:06:32;0.73;;;0.50;;
51995;SDS011;38010;53.264;6.592;2023-04-03T10:09:10;0.50;;;0.40;;
51995;SDS011;38010;53.264;6.592;2023-04-03T10:11:56;0.57;;;0.40;;
51995;SDS011;38010;53.264;6.592;2023-04-03T10:17:18;0.65;;;0.50;;
51995;SDS011;38010;53.264;6.592;2023-04-03T10:28:17;0.57;;;0.45;;
51995;SDS011;38010;53.264;6.592;2023-04-03T10:30:57;0.45;;;0.40;;
51995;SDS011;38010;53.264;6.592;2023-04-03T10:33:50;0.63;;;0.50;;
51995;SDS011;38010;53.264;6.592;2023-04-03T10:44:19;1.30;;;0.52;;
51995;SDS011;38010;53.264;6.592;2023-04-03T10:49:38;1.58;;;1.10;;
51995;SDS011;38010;53.264;6.592;2023-04-03T10:57:38;2.70;;;2.00;;
51995;SDS011;38010;53.264;6.592;2023-04-03T11:00:07;3.83;;;2.55;;
51995;SDS011;38010;53.264;6.592;2023-04-03T11:02:56;2.75;;;2.40;;
51995;SDS011;38010;53.264;6.592;2023-04-03T11:05:28;3.28;;;2.90;;
51995;SDS011;38010;53.264;6.592;2023-04-03T11:08:10;4.80;;;3.63;;
51995;SDS011;38010;53.264;6.592;2023-04-03T11:10:49;4.32;;;3.10;;
51995;SDS011;38010;53.264;6.592;2023-04-03T11:15:44;3.70;;;3.22;;
51995;SDS011;38010;53.264;6.592;2023-04-03T11:18:19;5.20;;;3.72;;
51995;SDS011;38010;53.264;6.592;2023-04-03T11:23:46;4.65;;;3.65;;
51995;SDS011;38010;53.264;6.592;2023-04-03T11:26:13;4.53;;;3.72;;
51995;SDS011;38010;53.264;6.592;2023-04-03T11:28:41;5.50;;;4.18;;
51995;SDS011;38010;53.264;6.592;2023-04-03T11:31:26;4.28;;;3.60;;
51995;SDS011;38010;53.264;6.592;2023-04-03T11:36:33;6.40;;;4.50;;
51995;SDS011;38010;53.264;6.592;2023-04-03T11:39:55;4.93;;;4.43;;
51995;SDS011;38010;53.264;6.592;2023-04-03T11:44:44;5.05;;;4.28;;
51995;SDS011;38010;53.264;6.592;2023-04-03T11:47:11;4.47;;;3.90;;
51995;SDS011;38010;53.264;6.592;2023-04-03T12:05:47;5.00;;;3.80;;
51995;SDS011;38010;53.264;6.592;2023-04-03T12:08:26;4.72;;;4.05;;
51995;SDS011;38010;53.264;6.592;2023-04-03T12:13:38;4.85;;;4.22;;
51995;SDS011;38010;53.264;6.592;2023-04-03T12:16:21;4.68;;;4.00;;
51995;SDS011;38010;53.264;6.592;2023-04-03T12:19:03;5.60;;;4.40;;
51995;SDS011;38010;53.264;6.592;2023-04-03T12:24:22;4.95;;;4.15;;
51995;SDS011;38010;53.264;6.592;2023-04-03T12:29:36;4.75;;;3.83;;
51995;SDS011;38010;53.264;6.592;2023-04-03T12:35:03;4.38;;;3.60;;
51995;SDS011;38010;53.264;6.592;2023-04-03T12:51:47;3.67;;;2.90;;
51995;SDS011;38010;53.264;6.592;2023-04-03T12:54:13;3.05;;;2.75;;
51995;SDS011;38010;53.264;6.592;2023-04-03T12:56:43;4.28;;;2.90;;
51995;SDS011;38010;53.264;6.592;2023-04-03T12:59:16;3.53;;;2.92;;
51995;SDS011;38010;53.264;6.592;2023-04-03T13:04:09;3.58;;;2.60;;
51995;SDS011;38010;53.264;6.592;2023-04-03T13:06:41;3.65;;;2.60;;
51995;SDS011;38010;53.264;6.592;2023-04-03T13:11:58;3.17;;;2.88;;
51995;SDS011;38010;53.264;6.592;2023-04-03T13:14:25;2.80;;;2.30;;
51995;SDS011;38010;53.264;6.592;2023-04-03T13:19:26;3.17;;;2.40;;
51995;SDS011;38010;53.264;6.592;2023-04-03T13:22:02;3.03;;;2.10;;
51995;SDS011;38010;53.264;6.592;2023-04-03T13:24:32;2.65;;;2.00;;
51995;SDS011;38010;53.264;6.592;2023-04-03T13:27:00;2.20;;;1.98;;
51995;SDS011;38010;53.264;6.592;2023-04-03T13:29:28;2.78;;;2.00;;
51995;SDS011;38010;53.264;6.592;2023-04-03T13:31:56;2.38;;;1.80;;
51995;SDS011;38010;53.264;6.592;2023-04-03T13:34:23;3.38;;;1.75;;
51995;SDS011;38010;53.264;6.592;2023-04-03T13:39:29;2.25;;;1.73;;
51995;SDS011;38010;53.264;6.592;2023-04-03T13:42:01;2.40;;;1.65;;
51995;SDS011;38010;53.264;6.592;2023-04-03T13:44:40;1.45;;;1.20;;
51995;SDS011;38010;53.264;6.592;2023-04-03T13:49:37;2.38;;;1.73;;
51995;SDS011;38010;53.264;6.592;2023-04-03T13:52:24;1.83;;;1.55;;
51995;SDS011;38010;53.264;6.592;2023-04-03T13:54:54;1.75;;;1.27;;
51995;SDS011;38010;53.264;6.592;2023-04-03T13:57:26;2.42;;;1.42;;
51995;SDS011;38010;53.264;6.592;2023-04-03T13:59:54;2.22;;;1.45;;
51995;SDS011;38010;53.264;6.592;2023-04-03T14:04:53;1.63;;;1.30;;
51995;SDS011;38010;53.264;6.592;2023-04-03T14:07:23;2.00;;;1.20;;
51995;SDS011;38010;53.264;6.592;2023-04-03T14:09:50;1.42;;;1.10;;
51995;SDS011;38010;53.264;6.592;2023-04-03T14:12:35;2.20;;;1.10;;
51995;SDS011;38010;53.264;6.592;2023-04-03T14:15:05;1.35;;;1.00;;
51995;SDS011;38010;53.264;6.592;2023-04-03T14:18:00;1.80;;;1.10;;
51995;SDS011;38010;53.264;6.592;2023-04-03T14:20:26;1.23;;;0.85;;
51995;SDS011;38010;53.264;6.592;2023-04-03T14:22:52;1.40;;;1.25;;
51995;SDS011;38010;53.264;6.592;2023-04-03T14:25:19;1.10;;;0.90;;
51995;SDS011;38010;53.264;6.592;2023-04-03T14:27:48;1.38;;;1.00;;
51995;SDS011;38010;53.264;6.592;2023-04-03T14:30:19;1.13;;;1.00;;
51995;SDS011;38010;53.264;6.592;2023-04-03T14:32:56;1.13;;;0.93;;
51995;SDS011;38010;53.264;6.592;2023-04-03T14:35:22;1.58;;;1.10;;
51995;SDS011;38010;53.264;6.592;2023-04-03T14:37:49;1.27;;;0.90;;
51995;SDS011;38010;53.264;6.592;2023-04-03T14:40:18;1.33;;;0.90;;
51995;SDS011;38010;53.264;6.592;2023-04-03T14:42:48;1.77;;;1.00;;
51995;SDS011;38010;53.264;6.592;2023-04-03T14:45:14;1.67;;;0.90;;
51995;SDS011;38010;53.264;6.592;2023-04-03T14:47:45;1.33;;;0.90;;
51995;SDS011;38010;53.264;6.592;2023-04-03T14:50:14;1.27;;;1.00;;
51995;SDS011;38010;53.264;6.592;2023-04-03T14:52:42;1.00;;;0.90;;
51995;SDS011;38010;53.264;6.592;2023-04-03T14:55:09;1.33;;;0.90;;
51995;SDS011;38010;53.264;6.592;2023-04-03T14:57:37;1.05;;;0.90;;
51995;SDS011;38010;53.264;6.592;2023-04-03T15:00:04;1.30;;;1.00;;
51995;SDS011;38010;53.264;6.592;2023-04-03T15:02:33;1.80;;;0.93;;
51995;SDS011;38010;53.264;6.592;2023-04-03T15:05:00;1.25;;;0.80;;
51995;SDS011;38010;53.264;6.592;2023-04-03T15:07:29;1.33;;;0.90;;
51995;SDS011;38010;53.264;6.592;2023-04-03T15:10:15;1.08;;;0.80;;
51995;SDS011;38010;53.264;6.592;2023-04-03T15:12:44;1.60;;;1.10;;
51995;SDS011;38010;53.264;6.592;2023-04-03T15:15:11;1.40;;;0.80;;
51995;SDS011;38010;53.264;6.592;2023-04-03T15:17:38;1.50;;;0.77;;
51995;SDS011;38010;53.264;6.592;2023-04-03T15:20:14;0.88;;;0.60;;
51995;SDS011;38010;53.264;6.592;2023-04-03T15:22:46;0.73;;;0.60;;
51995;SDS011;38010;53.264;6.592;2023-04-03T15:25:12;1.02;;;0.60;;
51995;SDS011;38010;53.264;6.592;2023-04-03T15:27:38;0.80;;;0.60;;
51995;SDS011;38010;53.264;6.592;2023-04-03T15:30:06;1.17;;;0.60;;
51995;SDS011;38010;53.264;6.592;2023-04-03T15:32:33;1.48;;;0.65;;
51995;SDS011;38010;53.264;6.592;2023-04-03T15:35:00;0.90;;;0.77;;
51995;SDS011;38010;53.264;6.592;2023-04-03T15:37:26;0.95;;;0.73;;
51995;SDS011;38010;53.264;6.592;2023-04-03T15:39:52;0.70;;;0.50;;
51995;SDS011;38010;53.264;6.592;2023-04-03T15:42:18;0.98;;;0.40;;
51995;SDS011;38010;53.264;6.592;2023-04-03T15:44:44;0.55;;;0.50;;
51995;SDS011;38010;53.264;6.592;2023-04-03T15:47:10;0.50;;;0.50;;
51995;SDS011;38010;53.264;6.592;2023-04-03T15:49:35;1.00;;;0.60;;
51995;SDS011;38010;53.264;6.592;2023-04-03T15:52:02;0.70;;;0.60;;
51995;SDS011;38010;53.264;6.592;2023-04-03T15:54:28;0.93;;;0.60;;
51995;SDS011;38010;53.264;6.592;2023-04-03T15:56:54;0.95;;;0.70;;
51995;SDS011;38010;53.264;6.592;2023-04-03T15:59:20;0.70;;;0.52;;
51995;SDS011;38010;53.264;6.592;2023-04-03T16:01:46;0.60;;;0.47;;
51995;SDS011;38010;53.264;6.592;2023-04-03T16:04:13;0.50;;;0.50;;
51995;SDS011;38010;53.264;6.592;2023-04-03T16:06:39;0.93;;;0.68;;
51995;SDS011;38010;53.264;6.592;2023-04-03T16:09:06;0.55;;;0.43;;
51995;SDS011;38010;53.264;6.592;2023-04-03T16:11:32;0.40;;;0.40;;
51995;SDS011;38010;53.264;6.592;2023-04-03T16:14:00;0.40;;;0.40;;
51995;SDS011;38010;53.264;6.592;2023-04-03T16:16:26;0.80;;;0.50;;
51995;SDS011;38010;53.264;6.592;2023-04-03T16:18:53;1.17;;;0.50;;
51995;SDS011;38010;53.264;6.592;2023-04-03T16:21:20;0.63;;;0.60;;
51995;SDS011;38010;53.264;6.592;2023-04-03T16:23:47;0.50;;;0.50;;
51995;SDS011;38010;53.264;6.592;2023-04-03T16:26:13;0.77;;;0.60;;
51995;SDS011;38010;53.264;6.592;2023-04-03T16:28:39;0.45;;;0.40;;
51995;SDS011;38010;53.264;6.592;2023-04-03T16:31:06;0.90;;;0.47;;
51995;SDS011;38010;53.264;6.592;2023-04-03T16:33:33;0.60;;;0.50;;
51995;SDS011;38010;53.264;6.592;2023-04-03T16:36:00;0.80;;;0.47;;
51995;SDS011;38010;53.264;6.592;2023-04-03T16:38:26;0.93;;;0.40;;
51995;SDS011;38010;53.264;6.592;2023-04-03T16:40:52;0.60;;;0.43;;
51995;SDS011;38010;53.264;6.592;2023-04-03T16:43:21;0.75;;;0.45;;
51995;SDS011;38010;53.264;6.592;2023-04-03T16:45:47;0.77;;;0.50;;
51995;SDS011;38010;53.264;6.592;2023-04-03T16:48:13;0.50;;;0.40;;
51995;SDS011;38010;53.264;6.592;2023-04-03T16:50:39;0.80;;;0.50;;
51995;SDS011;38010;53.264;6.592;2023-04-03T16:53:04;0.77;;;0.60;;
51995;SDS011;38010;53.264;6.592;2023-04-03T16:55:33;0.80;;;0.50;;
51995;SDS011;38010;53.264;6.592;2023-04-03T16:57:59;0.93;;;0.50;;
51995;SDS011;38010;53.264;6.592;2023-04-03T17:00:24;0.88;;;0.50;;